createdAt,value
2023-03-26T00:00:03.790Z,0.00
2023-03-26T00:01:03.785Z,0.00
2023-03-26T00:02:03.827Z,0.00
2023-03-26T00:03:03.783Z,0.00
2023-03-26T00:04:03.775Z,0.00
2023-03-26T00:05:03.766Z,0.00
2023-03-26T00:06:03.814Z,0.00
2023-03-26T00:07:03.758Z,0.00
2023-03-26T00:08:03.761Z,0.00
2023-03-26T00:09:03.747Z,0.00
2023-03-26T00:10:03.759Z,0.00
2023-03-26T00:11:03.740Z,0.00
2023-03-26T00:12:03.741Z,0.00
2023-03-26T00:13:03.732Z,0.00
2023-03-26T00:14:03.781Z,0.00
2023-03-26T00:15:03.731Z,0.00
2023-03-26T00:16:05.133Z,0.00
2023-03-26T00:17:03.720Z,0.00
2023-03-26T00:18:03.739Z,0.00
2023-03-26T00:19:03.707Z,0.00
2023-03-26T00:20:03.708Z,0.00
2023-03-26T00:21:03.697Z,0.00
2023-03-26T00:22:03.718Z,0.00
2023-03-26T00:23:03.688Z,0.00
2023-03-26T00:24:03.689Z,0.00
2023-03-26T00:25:03.688Z,0.00
2023-03-26T00:26:03.681Z,0.00
2023-03-26T00:27:03.681Z,0.00
2023-03-26T00:28:03.674Z,0.00
2023-03-26T00:29:03.848Z,0.00
2023-03-26T00:30:03.920Z,0.00
2023-03-26T00:31:03.715Z,0.00
2023-03-26T00:32:03.677Z,0.00
2023-03-26T00:33:03.691Z,0.00
2023-03-26T00:34:03.762Z,0.00
2023-03-26T00:35:03.644Z,0.00
2023-03-26T00:36:04.488Z,0.00
2023-03-26T00:37:03.635Z,0.00
2023-03-26T00:38:03.651Z,0.00
2023-03-26T00:39:03.631Z,0.00
2023-03-26T00:40:03.625Z,0.00
2023-03-26T00:41:03.620Z,0.00
2023-03-26T00:42:03.630Z,0.00
2023-03-26T00:43:03.611Z,0.00
2023-03-26T00:44:03.616Z,0.00
2023-03-26T00:45:03.606Z,0.00
2023-03-26T00:46:03.629Z,0.00
2023-03-26T00:47:03.615Z,0.00
2023-03-26T00:48:03.630Z,0.00
2023-03-26T00:49:03.592Z,0.00
2023-03-26T00:50:03.586Z,0.00
2023-03-26T00:51:03.579Z,0.00
2023-03-26T00:52:03.600Z,0.00
2023-03-26T00:53:03.575Z,0.00
2023-03-26T00:54:03.588Z,0.00
2023-03-26T00:55:03.568Z,0.00
2023-03-26T00:56:03.560Z,0.00
2023-03-26T00:57:03.574Z,0.00
2023-03-26T00:58:03.555Z,0.00
2023-03-26T00:59:03.548Z,0.00
2023-03-26T01:00:03.545Z,0.00
2023-03-26T01:01:03.620Z,0.00
2023-03-26T01:02:03.602Z,0.00
2023-03-26T01:03:03.621Z,0.00
2023-03-26T01:04:08.064Z,0.00
2023-03-26T01:05:03.601Z,0.00
2023-03-26T01:06:03.524Z,0.00
2023-03-26T01:07:03.516Z,0.00
2023-03-26T01:08:03.510Z,0.00
2023-03-26T01:09:03.503Z,0.00
2023-03-26T01:10:03.524Z,0.00
2023-03-26T01:11:03.520Z,0.00
2023-03-26T01:12:03.505Z,0.00
2023-03-26T01:13:03.519Z,0.00
2023-03-26T01:14:03.487Z,0.00
2023-03-26T01:15:03.490Z,0.00
2023-03-26T01:16:03.487Z,0.00
2023-03-26T01:17:03.567Z,0.00
2023-03-26T01:18:03.502Z,0.00
2023-03-26T01:19:03.474Z,0.00
2023-03-26T01:20:03.466Z,0.00
2023-03-26T01:21:03.454Z,0.00
2023-03-26T01:22:03.450Z,0.00
2023-03-26T01:23:03.464Z,0.00
2023-03-26T01:24:03.460Z,0.00
2023-03-26T01:25:03.470Z,0.00
2023-03-26T01:26:03.459Z,0.00
2023-03-26T01:27:03.437Z,0.00
2023-03-26T01:28:03.433Z,0.00
2023-03-26T01:29:03.453Z,0.00
2023-03-26T01:30:03.500Z,0.00
2023-03-26T01:31:03.410Z,0.00
2023-03-26T01:32:03.410Z,0.00
2023-03-26T01:33:03.550Z,0.00
2023-03-26T01:34:03.397Z,0.00
2023-03-26T01:35:03.492Z,0.00
2023-03-26T01:36:03.451Z,0.00
2023-03-26T01:37:03.484Z,0.00
2023-03-26T01:38:03.408Z,0.00
2023-03-26T01:39:03.431Z,0.00
2023-03-26T01:40:03.447Z,0.00
2023-03-26T01:41:03.436Z,0.00
2023-03-26T01:42:03.477Z,0.00
2023-03-26T01:43:03.435Z,0.00
2023-03-26T01:44:03.441Z,0.00
2023-03-26T01:45:03.471Z,0.00
2023-03-26T01:46:03.464Z,0.00
2023-03-26T01:47:03.347Z,0.00
2023-03-26T01:48:03.431Z,0.00
2023-03-26T01:49:03.417Z,0.00
2023-03-26T01:50:03.449Z,0.00
2023-03-26T01:51:03.433Z,0.00
2023-03-26T01:52:03.324Z,0.00
2023-03-26T01:53:03.320Z,0.00
2023-03-26T01:54:03.321Z,0.00
2023-03-26T01:55:03.313Z,0.00
2023-03-26T01:56:03.303Z,0.00
2023-03-26T01:57:03.342Z,0.00
2023-03-26T01:58:03.359Z,0.00
2023-03-26T01:59:03.297Z,0.00
2023-03-26T02:00:03.307Z,0.00
2023-03-26T02:01:03.286Z,0.00
2023-03-26T02:02:03.325Z,0.00
2023-03-26T02:03:03.440Z,0.00
2023-03-26T02:04:03.273Z,0.00
2023-03-26T02:05:03.312Z,0.00
2023-03-26T02:06:03.270Z,0.00
2023-03-26T02:07:03.259Z,0.00
2023-03-26T02:08:03.256Z,0.00
2023-03-26T02:09:03.254Z,0.00
2023-03-26T02:10:03.246Z,0.00
2023-03-26T02:11:03.244Z,0.00
2023-03-26T02:12:03.239Z,0.00
2023-03-26T02:13:03.233Z,0.00
2023-03-26T02:14:03.312Z,0.00
2023-03-26T02:15:03.225Z,0.00
2023-03-26T02:16:03.272Z,0.00
2023-03-26T02:17:03.220Z,0.00
2023-03-26T02:18:03.242Z,0.00
2023-03-26T02:19:03.210Z,0.00
2023-03-26T02:20:03.214Z,0.00
2023-03-26T02:21:03.202Z,0.00
2023-03-26T02:22:03.198Z,0.00
2023-03-26T02:23:03.193Z,0.00
2023-03-26T02:24:03.759Z,0.00
2023-03-26T02:25:03.189Z,0.00
2023-03-26T02:26:03.175Z,0.00
2023-03-26T02:27:03.177Z,0.00
2023-03-26T02:28:03.168Z,0.00
2023-03-26T02:29:03.180Z,0.00
2023-03-26T02:30:03.634Z,0.00
2023-03-26T02:31:03.156Z,0.00
2023-03-26T02:32:03.177Z,0.00
2023-03-26T02:33:03.181Z,0.00
2023-03-26T02:34:03.143Z,0.00
2023-03-26T02:35:03.137Z,0.00
2023-03-26T02:36:03.196Z,0.00
2023-03-26T02:37:03.146Z,0.00
2023-03-26T02:38:03.131Z,0.00
2023-03-26T02:39:03.124Z,0.00
2023-03-26T02:40:03.132Z,0.00
2023-03-26T02:41:03.114Z,0.00
2023-03-26T02:42:03.114Z,0.00
2023-03-26T02:43:03.102Z,0.00
2023-03-26T02:44:03.108Z,0.00
2023-03-26T02:45:03.101Z,0.00
2023-03-26T02:46:03.170Z,0.00
2023-03-26T02:47:03.087Z,0.00
2023-03-26T02:48:03.106Z,0.00
2023-03-26T02:49:03.080Z,0.00
2023-03-26T02:50:03.083Z,0.00
2023-03-26T02:51:03.077Z,0.00
2023-03-26T02:52:03.067Z,0.00
2023-03-26T02:53:03.060Z,0.00
2023-03-26T02:54:03.059Z,0.00
2023-03-26T02:55:03.078Z,0.00
2023-03-26T02:56:03.049Z,0.00
2023-03-26T02:57:03.087Z,0.00
2023-03-26T02:58:03.042Z,0.00
2023-03-26T02:59:03.038Z,0.00
2023-03-26T03:00:03.037Z,0.00
2023-03-26T03:01:03.193Z,0.00
2023-03-26T03:02:03.069Z,0.00
2023-03-26T03:03:03.113Z,0.00
2023-03-26T03:04:03.020Z,0.00
2023-03-26T03:05:03.031Z,0.00
2023-03-26T03:06:03.007Z,0.00
2023-03-26T03:07:03.010Z,0.00
2023-03-26T03:08:02.998Z,0.00
2023-03-26T03:09:02.993Z,0.00
2023-03-26T03:10:03.004Z,0.00
2023-03-26T03:11:03.025Z,0.00
2023-03-26T03:12:02.981Z,0.00
2023-03-26T03:13:02.976Z,0.00
2023-03-26T03:14:02.972Z,0.00
2023-03-26T03:15:02.966Z,0.00
2023-03-26T03:16:02.964Z,0.00
2023-03-26T03:17:03.072Z,0.00
2023-03-26T03:18:02.994Z,0.00
2023-03-26T03:19:02.974Z,0.00
2023-03-26T03:20:02.947Z,0.00
2023-03-26T03:21:02.963Z,0.00
2023-03-26T03:22:02.950Z,0.00
2023-03-26T03:23:02.936Z,0.00
2023-03-26T03:24:02.933Z,0.00
2023-03-26T03:25:02.924Z,0.00
2023-03-26T03:26:02.929Z,0.00
2023-03-26T03:27:02.940Z,0.00
2023-03-26T03:28:02.913Z,0.00
2023-03-26T03:29:02.906Z,0.00
2023-03-26T03:30:02.911Z,0.00
2023-03-26T03:31:03.285Z,0.00
2023-03-26T03:32:02.928Z,0.00
2023-03-26T03:33:02.985Z,0.00
2023-03-26T03:34:02.905Z,0.00
2023-03-26T03:35:02.882Z,0.00
2023-03-26T03:36:02.896Z,0.00
2023-03-26T03:37:02.872Z,0.00
2023-03-26T03:38:02.872Z,0.00
2023-03-26T03:39:03.072Z,0.00
2023-03-26T03:40:02.865Z,0.00
2023-03-26T03:41:02.860Z,0.00
2023-03-26T03:42:02.852Z,0.00
2023-03-26T03:43:02.849Z,0.00
2023-03-26T03:44:02.853Z,0.00
2023-03-26T03:45:02.839Z,0.00
2023-03-26T03:46:02.925Z,0.00
2023-03-26T03:47:02.830Z,0.00
2023-03-26T03:48:02.968Z,0.00
2023-03-26T03:49:02.825Z,0.00
2023-03-26T03:50:02.851Z,0.00
2023-03-26T03:51:02.815Z,0.00
2023-03-26T03:52:02.815Z,0.00
2023-03-26T03:53:02.802Z,0.00
2023-03-26T03:54:02.807Z,0.00
2023-03-26T03:55:02.800Z,0.00
2023-03-26T03:56:02.797Z,0.00
2023-03-26T03:57:02.840Z,0.00
2023-03-26T03:58:02.794Z,0.00
2023-03-26T03:59:02.777Z,0.00
2023-03-26T04:00:03.903Z,0.00
2023-03-26T04:01:02.770Z,0.00
2023-03-26T04:02:02.764Z,0.00
2023-03-26T04:03:02.872Z,0.00
2023-03-26T04:04:02.825Z,0.00
2023-03-26T04:05:02.747Z,0.00
2023-03-26T04:06:02.766Z,0.00
2023-03-26T04:07:02.752Z,0.00
2023-03-26T04:08:02.735Z,0.00
2023-03-26T04:09:02.757Z,0.00
2023-03-26T04:10:02.732Z,0.00
2023-03-26T04:11:02.723Z,0.00
2023-03-26T04:12:02.724Z,0.00
2023-03-26T04:13:02.716Z,0.00
2023-03-26T04:14:02.707Z,0.00
2023-03-26T04:15:02.709Z,0.00
2023-03-26T04:16:02.797Z,0.00
2023-03-26T04:17:02.697Z,0.00
2023-03-26T04:18:02.710Z,0.00
2023-03-26T04:19:02.686Z,0.00
2023-03-26T04:20:02.682Z,0.00
2023-03-26T04:21:02.686Z,0.00
2023-03-26T04:22:02.722Z,0.00
2023-03-26T04:23:02.679Z,0.00
2023-03-26T04:24:02.662Z,0.00
2023-03-26T04:25:02.678Z,0.00
2023-03-26T04:26:02.658Z,0.00
2023-03-26T04:27:02.654Z,0.00
2023-03-26T04:28:02.651Z,0.00
2023-03-26T04:29:02.677Z,0.00
2023-03-26T04:30:02.640Z,0.00
2023-03-26T04:31:02.672Z,0.00
2023-03-26T04:32:02.625Z,0.00
2023-03-26T04:33:02.660Z,0.00
2023-03-26T04:34:02.618Z,0.00
2023-03-26T04:35:02.614Z,0.00
2023-03-26T04:36:02.844Z,0.00
2023-03-26T04:37:02.636Z,0.00
2023-03-26T04:38:02.624Z,0.00
2023-03-26T04:39:02.612Z,0.00
2023-03-26T04:40:02.593Z,0.00
2023-03-26T04:41:04.533Z,0.00
2023-03-26T04:42:02.581Z,0.00
2023-03-26T04:43:02.606Z,0.00
2023-03-26T04:44:02.573Z,0.00
2023-03-26T04:45:02.573Z,0.00
2023-03-26T04:46:02.570Z,0.00
2023-03-26T04:47:02.583Z,0.00
2023-03-26T04:48:02.622Z,0.00
2023-03-26T04:49:02.550Z,0.00
2023-03-26T04:50:02.554Z,0.00
2023-03-26T04:51:02.565Z,0.00
2023-03-26T04:52:02.549Z,0.00
2023-03-26T04:53:02.546Z,0.00
2023-03-26T04:54:02.678Z,0.00
2023-03-26T04:55:02.528Z,0.00
2023-03-26T04:56:02.519Z,0.00
2023-03-26T04:57:02.544Z,0.00
2023-03-26T04:58:02.513Z,0.00
2023-03-26T04:59:02.520Z,0.00
2023-03-26T05:00:02.509Z,0.00
2023-03-26T05:01:10.289Z,0.00
2023-03-26T05:02:02.492Z,0.00
2023-03-26T05:03:02.539Z,0.00
2023-03-26T05:04:02.505Z,0.00
2023-03-26T05:05:02.488Z,0.00
2023-03-26T05:06:02.486Z,0.00
2023-03-26T05:07:02.474Z,0.00
2023-03-26T05:08:02.464Z,0.00
2023-03-26T05:09:02.461Z,0.00
2023-03-26T05:10:02.487Z,0.00
2023-03-26T05:11:02.455Z,0.00
2023-03-26T05:12:02.450Z,0.00
2023-03-26T05:13:02.451Z,0.00
2023-03-26T05:14:02.442Z,0.00
2023-03-26T05:15:02.437Z,0.00
2023-03-26T05:16:02.456Z,4.00
2023-03-26T05:17:02.426Z,4.00
2023-03-26T05:18:02.491Z,4.00
2023-03-26T05:19:02.420Z,0.00
2023-03-26T05:20:02.437Z,0.00
2023-03-26T05:21:02.413Z,0.00
2023-03-26T05:22:02.429Z,0.00
2023-03-26T05:23:02.405Z,0.00
2023-03-26T05:24:02.395Z,0.00
2023-03-26T05:25:02.393Z,4.00
2023-03-26T05:26:02.409Z,4.00
2023-03-26T05:27:02.387Z,0.00
2023-03-26T05:28:02.377Z,4.00
2023-03-26T05:29:02.376Z,4.00
2023-03-26T05:30:02.382Z,4.00
2023-03-26T05:31:02.366Z,8.00
2023-03-26T05:32:02.361Z,4.00
2023-03-26T05:33:02.432Z,8.00
2023-03-26T05:34:02.352Z,4.00
2023-03-26T05:35:02.362Z,4.00
2023-03-26T05:36:02.398Z,8.00
2023-03-26T05:37:02.342Z,8.00
2023-03-26T05:38:02.337Z,8.00
2023-03-26T05:39:02.333Z,8.00
2023-03-26T05:40:02.325Z,8.00
2023-03-26T05:41:02.322Z,8.00
2023-03-26T05:42:02.338Z,8.00
2023-03-26T05:43:02.330Z,8.00
2023-03-26T05:44:02.325Z,8.00
2023-03-26T05:45:02.314Z,8.00
2023-03-26T05:46:02.395Z,12.00
2023-03-26T05:47:02.306Z,12.00
2023-03-26T05:48:02.336Z,12.00
2023-03-26T05:49:02.300Z,16.00
2023-03-26T05:50:02.299Z,16.00
2023-03-26T05:51:02.290Z,20.00
2023-03-26T05:52:02.281Z,20.00
2023-03-26T05:53:02.273Z,24.00
2023-03-26T05:54:02.268Z,24.00
2023-03-26T05:55:02.267Z,20.00
2023-03-26T05:56:02.259Z,24.00
2023-03-26T05:57:02.353Z,28.00
2023-03-26T05:58:02.307Z,28.00
2023-03-26T05:59:02.259Z,28.00
2023-03-26T06:00:02.448Z,24.00
2023-03-26T06:01:02.464Z,28.00
2023-03-26T06:02:02.237Z,28.00
2023-03-26T06:03:02.319Z,28.00
2023-03-26T06:04:02.366Z,24.00
2023-03-26T06:05:02.219Z,28.00
2023-03-26T06:06:02.228Z,24.00
2023-03-26T06:07:02.216Z,28.00
2023-03-26T06:08:02.204Z,28.00
2023-03-26T06:09:02.983Z,28.00
2023-03-26T06:10:02.192Z,28.00
2023-03-26T06:11:02.197Z,28.00
2023-03-26T06:12:02.189Z,28.00
2023-03-26T06:13:02.187Z,32.00
2023-03-26T06:14:02.202Z,32.00
2023-03-26T06:15:02.175Z,36.00
2023-03-26T06:16:02.279Z,36.00
2023-03-26T06:17:02.169Z,36.00
2023-03-26T06:18:02.225Z,36.00
2023-03-26T06:19:02.216Z,32.00
2023-03-26T06:20:02.158Z,36.00
2023-03-26T06:21:02.147Z,36.00
2023-03-26T06:22:02.143Z,36.00
2023-03-26T06:23:02.142Z,32.00
2023-03-26T06:24:02.134Z,32.00
2023-03-26T06:25:02.132Z,32.00
2023-03-26T06:26:02.131Z,32.00
2023-03-26T06:27:02.126Z,32.00
2023-03-26T06:28:02.124Z,32.00
2023-03-26T06:29:02.120Z,32.00
2023-03-26T06:30:02.135Z,32.00
2023-03-26T06:31:02.144Z,36.00
2023-03-26T06:32:12.453Z,40.00
2023-03-26T06:33:02.153Z,40.00
2023-03-26T06:34:02.092Z,36.00
2023-03-26T06:35:02.107Z,40.00
2023-03-26T06:36:02.122Z,40.00
2023-03-26T06:37:02.080Z,40.00
2023-03-26T06:38:02.083Z,40.00
2023-03-26T06:39:02.068Z,44.00
2023-03-26T06:40:02.060Z,44.00
2023-03-26T06:41:02.211Z,44.00
2023-03-26T06:42:02.054Z,44.00
2023-03-26T06:43:09.586Z,44.00
2023-03-26T06:44:02.045Z,44.00
2023-03-26T06:45:02.047Z,40.00
2023-03-26T06:46:02.062Z,44.00
2023-03-26T06:47:02.072Z,44.00
2023-03-26T06:48:02.118Z,44.00
2023-03-26T06:49:02.027Z,48.00
2023-03-26T06:50:02.023Z,52.00
2023-03-26T06:51:02.020Z,52.00
2023-03-26T06:52:02.015Z,56.00
2023-03-26T06:53:02.011Z,56.00
2023-03-26T06:54:02.006Z,60.00
2023-03-26T06:55:02.002Z,60.00
2023-03-26T06:56:01.997Z,60.00
2023-03-26T06:57:02.048Z,64.00
2023-03-26T06:58:01.988Z,68.00
2023-03-26T06:59:01.985Z,68.00
2023-03-26T07:00:01.989Z,72.00
2023-03-26T07:01:02.016Z,76.00
2023-03-26T07:02:02.095Z,76.00
2023-03-26T07:03:02.045Z,80.00
2023-03-26T07:04:02.008Z,80.00
2023-03-26T07:05:01.967Z,84.00
2023-03-26T07:06:01.953Z,84.00
2023-03-26T07:07:01.957Z,88.00
2023-03-26T07:08:01.946Z,92.00
2023-03-26T07:09:01.946Z,92.00
2023-03-26T07:10:01.951Z,92.00
2023-03-26T07:11:01.931Z,92.00
2023-03-26T07:12:01.938Z,96.00
2023-03-26T07:13:01.921Z,96.00
2023-03-26T07:14:01.919Z,104.00
2023-03-26T07:15:01.921Z,104.00
2023-03-26T07:16:01.986Z,112.00
2023-03-26T07:17:01.918Z,112.00
2023-03-26T07:18:01.962Z,112.00
2023-03-26T07:19:01.898Z,120.00
2023-03-26T07:20:01.898Z,124.00
2023-03-26T07:21:01.888Z,128.00
2023-03-26T07:22:01.998Z,132.00
2023-03-26T07:23:01.884Z,132.00
2023-03-26T07:24:01.874Z,132.00
2023-03-26T07:25:01.868Z,136.00
2023-03-26T07:26:01.875Z,136.00
2023-03-26T07:27:01.863Z,136.00
2023-03-26T07:28:01.870Z,136.00
2023-03-26T07:29:04.029Z,144.00
2023-03-26T07:30:01.845Z,144.00
2023-03-26T07:31:01.844Z,148.00
2023-03-26T07:32:01.897Z,148.00
2023-03-26T07:33:01.925Z,152.00
2023-03-26T07:34:01.853Z,152.00
2023-03-26T07:35:02.074Z,156.00
2023-03-26T07:36:01.818Z,156.00
2023-03-26T07:37:01.814Z,156.00
2023-03-26T07:38:01.831Z,156.00
2023-03-26T07:39:01.805Z,160.00
2023-03-26T07:40:01.798Z,164.00
2023-03-26T07:41:01.812Z,164.00
2023-03-26T07:42:01.807Z,156.00
2023-03-26T07:43:01.812Z,160.00
2023-03-26T07:44:01.787Z,160.00
2023-03-26T07:45:01.775Z,164.00
2023-03-26T07:46:01.822Z,168.00
2023-03-26T07:47:01.796Z,168.00
2023-03-26T07:48:01.854Z,168.00
2023-03-26T07:49:01.773Z,168.00
2023-03-26T07:50:01.774Z,164.00
2023-03-26T07:51:01.752Z,160.00
2023-03-26T07:52:01.753Z,156.00
2023-03-26T07:53:01.739Z,156.00
2023-03-26T07:54:01.748Z,156.00
2023-03-26T07:55:01.759Z,152.00
2023-03-26T07:56:02.003Z,148.00
2023-03-26T07:57:02.168Z,144.00
2023-03-26T07:58:01.721Z,140.00
2023-03-26T07:59:01.723Z,144.00
2023-03-26T08:00:01.713Z,148.00
2023-03-26T08:01:01.703Z,148.00
2023-03-26T08:02:01.700Z,148.00
2023-03-26T08:03:01.859Z,148.00
2023-03-26T08:04:23.714Z,140.00
2023-03-26T08:05:01.875Z,144.00
2023-03-26T08:06:01.716Z,144.00
2023-03-26T08:07:01.678Z,152.00
2023-03-26T08:08:01.673Z,160.00
2023-03-26T08:09:01.668Z,152.00
2023-03-26T08:10:01.838Z,144.00
2023-03-26T08:11:01.684Z,144.00
2023-03-26T08:12:01.656Z,144.00
2023-03-26T08:13:01.649Z,144.00
2023-03-26T08:14:01.648Z,140.00
2023-03-26T08:15:01.642Z,148.00
2023-03-26T08:16:01.651Z,160.00
2023-03-26T08:17:01.632Z,152.00
2023-03-26T08:18:01.685Z,148.00
2023-03-26T08:19:01.621Z,148.00
2023-03-26T08:20:01.667Z,144.00
2023-03-26T08:21:01.615Z,144.00
2023-03-26T08:22:01.632Z,144.00
2023-03-26T08:23:01.604Z,148.00
2023-03-26T08:24:01.608Z,156.00
2023-03-26T08:25:01.599Z,160.00
2023-03-26T08:26:01.593Z,164.00
2023-03-26T08:27:01.590Z,156.00
2023-03-26T08:28:01.583Z,164.00
2023-03-26T08:29:01.578Z,160.00
2023-03-26T08:30:01.595Z,160.00
2023-03-26T08:31:01.585Z,164.00
2023-03-26T08:32:01.565Z,156.00
2023-03-26T08:33:01.615Z,156.00
2023-03-26T08:34:01.568Z,152.00
2023-03-26T08:35:01.564Z,156.00
2023-03-26T08:36:01.587Z,152.00
2023-03-26T08:37:01.593Z,156.00
2023-03-26T08:38:01.586Z,164.00
2023-03-26T08:39:01.547Z,148.00
2023-03-26T08:40:01.534Z,152.00
2023-03-26T08:41:01.524Z,156.00
2023-03-26T08:42:01.534Z,136.00
2023-03-26T08:43:01.530Z,120.00
2023-03-26T08:44:01.512Z,116.00
2023-03-26T08:45:01.507Z,92.00
2023-03-26T08:46:01.855Z,80.00
2023-03-26T08:47:01.497Z,84.00
2023-03-26T08:48:01.525Z,104.00
2023-03-26T08:49:01.494Z,104.00
2023-03-26T08:50:01.510Z,108.00
2023-03-26T08:51:01.500Z,120.00
2023-03-26T08:52:01.477Z,136.00
2023-03-26T08:53:01.473Z,136.00
2023-03-26T08:54:01.492Z,140.00
2023-03-26T08:55:01.465Z,144.00
2023-03-26T08:56:01.462Z,140.00
2023-03-26T08:57:01.485Z,144.00
2023-03-26T08:58:02.855Z,144.00
2023-03-26T08:59:01.467Z,144.00
2023-03-26T09:00:02.855Z,144.00
2023-03-26T09:01:01.436Z,152.00
2023-03-26T09:02:01.482Z,152.00
2023-03-26T09:03:01.501Z,152.00
2023-03-26T09:04:01.470Z,152.00
2023-03-26T09:05:01.457Z,152.00
2023-03-26T09:06:01.429Z,152.00
2023-03-26T09:07:01.417Z,156.00
2023-03-26T09:08:01.410Z,152.00
2023-03-26T09:09:01.434Z,156.00
2023-03-26T09:10:01.420Z,156.00
2023-03-26T09:11:01.408Z,160.00
2023-03-26T09:12:01.392Z,164.00
2023-03-26T09:13:01.387Z,164.00
2023-03-26T09:14:01.389Z,164.00
2023-03-26T09:15:01.378Z,164.00
2023-03-26T09:16:01.400Z,160.00
2023-03-26T09:17:01.368Z,144.00
2023-03-26T09:18:01.428Z,128.00
2023-03-26T09:19:01.361Z,116.00
2023-03-26T09:20:01.355Z,108.00
2023-03-26T09:21:01.349Z,96.00
2023-03-26T09:22:01.393Z,108.00
2023-03-26T09:23:01.358Z,104.00
2023-03-26T09:24:01.338Z,108.00
2023-03-26T09:25:01.333Z,120.00
2023-03-26T09:26:01.356Z,132.00
2023-03-26T09:27:01.331Z,164.00
2023-03-26T09:28:01.325Z,168.00
2023-03-26T09:29:01.318Z,164.00
2023-03-26T09:30:01.315Z,160.00
2023-03-26T09:31:01.311Z,156.00
2023-03-26T09:32:01.305Z,156.00
2023-03-26T09:33:01.347Z,148.00
2023-03-26T09:34:01.299Z,140.00
2023-03-26T09:35:01.307Z,156.00
2023-03-26T09:36:01.320Z,160.00
2023-03-26T09:37:01.292Z,148.00
2023-03-26T09:38:01.377Z,124.00
2023-03-26T09:39:01.282Z,132.00
2023-03-26T09:40:01.296Z,144.00
2023-03-26T09:41:01.279Z,156.00
2023-03-26T09:42:01.344Z,156.00
2023-03-26T09:43:01.258Z,160.00
2023-03-26T09:44:01.255Z,164.00
2023-03-26T09:45:01.277Z,168.00
2023-03-26T09:46:01.346Z,168.00
2023-03-26T09:47:01.242Z,168.00
2023-03-26T09:48:01.341Z,172.00
2023-03-26T09:49:01.254Z,168.00
2023-03-26T09:50:01.226Z,172.00
2023-03-26T09:51:01.226Z,172.00
2023-03-26T09:52:01.226Z,172.00
2023-03-26T09:53:01.224Z,176.00
2023-03-26T09:54:01.212Z,180.00
2023-03-26T09:55:01.263Z,180.00
2023-03-26T09:56:01.203Z,184.00
2023-03-26T09:57:01.221Z,188.00
2023-03-26T09:58:01.258Z,196.00
2023-03-26T09:59:01.187Z,196.00
2023-03-26T10:00:01.192Z,200.00
2023-03-26T10:01:01.248Z,200.00
2023-03-26T10:02:01.180Z,208.00
2023-03-26T10:03:01.172Z,204.00
2023-03-26T10:04:01.164Z,208.00
2023-03-26T10:05:01.221Z,212.00
2023-03-26T10:06:01.156Z,212.00
2023-03-26T10:07:01.154Z,216.00
2023-03-26T10:08:01.151Z,216.00
2023-03-26T10:09:01.142Z,212.00
2023-03-26T10:10:01.154Z,216.00
2023-03-26T10:11:01.137Z,216.00
2023-03-26T10:12:01.137Z,224.00
2023-03-26T10:13:13.568Z,228.00
2023-03-26T10:14:01.138Z,240.00
2023-03-26T10:15:01.109Z,256.00
2023-03-26T10:16:01.114Z,264.00
2023-03-26T10:17:01.157Z,268.00
2023-03-26T10:18:01.147Z,276.00
2023-03-26T10:19:01.120Z,280.00
2023-03-26T10:20:01.134Z,288.00
2023-03-26T10:21:01.100Z,276.00
2023-03-26T10:22:01.082Z,300.00
2023-03-26T10:23:01.079Z,300.00
2023-03-26T10:24:01.076Z,312.00
2023-03-26T10:25:01.073Z,304.00
2023-03-26T10:26:01.065Z,300.00
2023-03-26T10:27:09.364Z,300.00
2023-03-26T10:28:01.054Z,300.00
2023-03-26T10:29:01.045Z,300.00
2023-03-26T10:30:01.084Z,304.00
2023-03-26T10:31:01.075Z,316.00
2023-03-26T10:32:01.048Z,328.00
2023-03-26T10:33:01.062Z,332.00
2023-03-26T10:34:01.022Z,316.00
2023-03-26T10:35:01.023Z,320.00
2023-03-26T10:36:01.046Z,336.00
2023-03-26T10:37:01.013Z,340.00
2023-03-26T10:38:01.010Z,344.00
2023-03-26T10:39:00.996Z,340.00
2023-03-26T10:40:01.006Z,336.00
2023-03-26T10:41:01.014Z,324.00
2023-03-26T10:42:00.985Z,324.00
2023-03-26T10:43:00.996Z,324.00
2023-03-26T10:44:07.807Z,328.00
2023-03-26T10:45:00.967Z,332.00
2023-03-26T10:46:01.004Z,332.00
2023-03-26T10:47:00.959Z,332.00
2023-03-26T10:48:00.978Z,332.00
2023-03-26T10:49:01.024Z,360.00
2023-03-26T10:50:00.944Z,368.00
2023-03-26T10:51:00.942Z,396.00
2023-03-26T10:52:00.943Z,424.00
2023-03-26T10:53:00.931Z,440.00
2023-03-26T10:54:00.938Z,464.00
2023-03-26T10:55:00.932Z,492.00
2023-03-26T10:56:00.915Z,488.00
2023-03-26T10:57:00.953Z,508.00
2023-03-26T10:58:00.909Z,500.00
2023-03-26T10:59:00.903Z,492.00
2023-03-26T11:00:00.896Z,536.00
2023-03-26T11:01:00.916Z,544.00
2023-03-26T11:02:01.008Z,544.00
2023-03-26T11:03:00.926Z,564.00
2023-03-26T11:04:00.878Z,560.00
2023-03-26T11:05:00.889Z,544.00
2023-03-26T11:06:01.042Z,496.00
2023-03-26T11:07:00.872Z,496.00
2023-03-26T11:08:00.878Z,460.00
2023-03-26T11:09:00.876Z,424.00
2023-03-26T11:10:00.854Z,392.00
2023-03-26T11:11:00.846Z,360.00
2023-03-26T11:12:00.846Z,360.00
2023-03-26T11:13:00.841Z,368.00
2023-03-26T11:14:00.842Z,372.00
2023-03-26T11:15:00.847Z,372.00
2023-03-26T11:16:00.847Z,384.00
2023-03-26T11:17:00.821Z,436.00
2023-03-26T11:18:00.913Z,408.00
2023-03-26T11:19:00.817Z,376.00
2023-03-26T11:20:00.819Z,416.00
2023-03-26T11:21:19.794Z,352.00
2023-03-26T11:22:00.802Z,336.00
2023-03-26T11:23:00.804Z,336.00
2023-03-26T11:24:05.164Z,364.00
2023-03-26T11:25:00.785Z,360.00
2023-03-26T11:26:00.800Z,332.00
2023-03-26T11:27:15.402Z,328.00
2023-03-26T11:28:00.772Z,320.00
2023-03-26T11:29:04.726Z,324.00
2023-03-26T11:30:00.765Z,316.00
2023-03-26T11:31:00.780Z,328.00
2023-03-26T11:32:00.756Z,340.00
2023-03-26T11:33:00.815Z,356.00
2023-03-26T11:34:00.765Z,360.00
2023-03-26T11:35:00.749Z,364.00
2023-03-26T11:36:00.757Z,356.00
2023-03-26T11:37:00.728Z,356.00
2023-03-26T11:38:00.725Z,356.00
2023-03-26T11:39:00.718Z,352.00
2023-03-26T11:40:00.714Z,360.00
2023-03-26T11:41:00.712Z,372.00
2023-03-26T11:42:00.709Z,384.00
2023-03-26T11:43:00.703Z,392.00
2023-03-26T11:44:00.699Z,400.00
2023-03-26T11:45:00.735Z,364.00
2023-03-26T11:46:00.764Z,372.00
2023-03-26T11:47:00.697Z,388.00
2023-03-26T11:48:00.710Z,400.00
2023-03-26T11:49:00.683Z,380.00
2023-03-26T11:50:00.701Z,384.00
2023-03-26T11:51:00.666Z,376.00
2023-03-26T11:52:00.661Z,376.00
2023-03-26T11:53:00.657Z,376.00
2023-03-26T11:54:00.660Z,392.00
2023-03-26T11:55:00.645Z,400.00
2023-03-26T11:56:00.656Z,392.00
2023-03-26T11:57:05.546Z,384.00
2023-03-26T11:58:00.631Z,380.00
2023-03-26T11:59:00.624Z,380.00
2023-03-26T12:00:00.620Z,364.00
2023-03-26T12:01:00.612Z,380.00
2023-03-26T12:02:00.641Z,420.00
2023-03-26T12:03:00.641Z,408.00
2023-03-26T12:04:00.686Z,404.00
2023-03-26T12:05:00.595Z,376.00
2023-03-26T12:06:00.610Z,372.00
2023-03-26T12:07:00.593Z,372.00
2023-03-26T12:08:00.594Z,356.00
2023-03-26T12:09:00.585Z,360.00
2023-03-26T12:10:18.085Z,356.00
2023-03-26T12:11:00.571Z,352.00
2023-03-26T12:12:00.560Z,360.00
2023-03-26T12:13:00.565Z,352.00
2023-03-26T12:14:00.549Z,368.00
2023-03-26T12:15:00.550Z,372.00
2023-03-26T12:16:00.572Z,380.00
2023-03-26T12:17:00.579Z,392.00
2023-03-26T12:18:00.542Z,408.00
2023-03-26T12:19:00.528Z,420.00
2023-03-26T12:20:00.529Z,420.00
2023-03-26T12:21:00.522Z,408.00
2023-03-26T12:22:00.532Z,416.00
2023-03-26T12:23:00.519Z,448.00
2023-03-26T12:24:00.510Z,456.00
2023-03-26T12:25:00.501Z,428.00
2023-03-26T12:26:00.496Z,400.00
2023-03-26T12:27:00.491Z,416.00
2023-03-26T12:28:00.498Z,412.00
2023-03-26T12:29:00.485Z,404.00
2023-03-26T12:30:00.483Z,416.00
2023-03-26T12:31:00.474Z,396.00
2023-03-26T12:32:00.502Z,368.00
2023-03-26T12:33:00.490Z,348.00
2023-03-26T12:34:00.463Z,344.00
2023-03-26T12:35:00.463Z,340.00
2023-03-26T12:36:00.768Z,348.00
2023-03-26T12:37:00.451Z,352.00
2023-03-26T12:38:00.467Z,356.00
2023-03-26T12:39:16.279Z,372.00
2023-03-26T12:40:09.380Z,388.00
2023-03-26T12:41:00.429Z,388.00
2023-03-26T12:44:41.741Z,380.00
2023-03-26T12:44:54.976Z,372.00
2023-03-26T12:44:55.920Z,368.00
2023-03-26T12:45:01.026Z,376.00
2023-03-26T12:47:26.480Z,392.00
2023-03-26T12:48:00.517Z,416.00
2023-03-26T12:48:03.953Z,448.00
2023-03-26T12:49:00.420Z,472.00
2023-03-26T12:50:00.436Z,476.00
2023-03-26T12:51:00.788Z,496.00
2023-03-26T12:52:00.377Z,504.00
2023-03-26T12:53:00.378Z,488.00